Time;durP1;ratioP1;P1;durP2;ratioP2;P2;SDS_P1;SDS_P2;PMS_P1;PMS_P2;Temp;Humidity;BMP_temperature;BMP_pressure;BME280_temperature;BME280_humidity;BME280_pressure;Samples;Min_cycle;Max_cycle;Signal;HPM_P1;HPM_P2
2023/06/22 00:00:23;;;;;;;6.18;1.98;;;;;;;21.52;72.30;101416.69;7368866;19;20017;-61
2023/06/22 00:02:50;;;;;;;5.78;1.80;;;;;;;21.52;72.30;101423.88;7365293;19;20039;-62
2023/06/22 00:05:17;;;;;;;4.35;1.80;;;;;;;21.52;72.74;101430.06;7366950;19;21656;-61
2023/06/22 00:07:44;;;;;;;4.95;2.08;;;;;;;21.51;72.37;101423.06;7364861;19;20969;-62
2023/06/22 00:10:12;;;;;;;5.65;2.20;;;;;;;21.51;72.31;101428.41;7368345;19;20025;-61
2023/06/22 00:12:39;;;;;;;6.50;2.08;;;;;;;21.49;72.12;101422.44;7364702;19;20030;-61
2023/06/22 00:15:07;;;;;;;5.97;2.35;;;;;;;21.45;72.02;101413.19;7368007;19;20018;-61
2023/06/22 00:17:34;;;;;;;4.40;2.13;;;;;;;21.43;72.57;101414.44;7367560;19;20014;-66
2023/06/22 00:20:05;;;;;;;5.95;2.13;;;;;;;21.43;72.85;101420.63;7368769;19;20359;-63
2023/06/22 00:22:38;;;;;;;5.00;1.85;;;;;;;21.43;72.76;101423.31;7367401;19;20098;-62
2023/06/22 00:25:07;;;;;;;;;;;;;;;21.41;72.32;101421.84;7367405;19;20625;-62
2023/06/22 00:27:35;;;;;;;3.90;2.10;;;;;;;21.38;72.41;101422.28;7363861;19;19934;-63
2023/06/22 00:30:03;;;;;;;3.92;2.05;;;;;;;21.33;72.94;101426.38;7364216;19;20595;-62
2023/06/22 00:32:31;;;;;;;3.65;2.10;;;;;;;21.32;73.75;101419.41;7366843;19;20925;-61
2023/06/22 00:34:58;;;;;;;5.40;2.83;;;;;;;21.30;72.90;101421.47;7366812;19;20014;-61
2023/06/22 00:37:29;;;;;;;6.28;2.30;;;;;;;21.28;73.05;101414.69;7363967;19;20022;-62
2023/06/22 00:39:56;;;;;;;4.65;2.13;;;;;;;21.27;73.05;101421.88;7363853;19;20025;-61
2023/06/22 00:42:24;;;;;;;4.43;2.55;;;;;;;21.27;73.11;101421.88;7366644;19;21773;-62
2023/06/22 00:44:51;;;;;;;5.40;2.17;;;;;;;21.26;73.56;101417.56;7368133;19;20028;-62
2023/06/22 00:47:19;;;;;;;5.35;2.22;;;;;;;21.24;73.07;101416.09;7366014;19;20010;-61
2023/06/22 00:49:48;;;;;;;4.43;2.60;;;;;;;21.24;73.31;101414.25;7360680;19;20097;-61
2023/06/22 00:52:20;;;;;;;3.97;2.25;;;;;;;21.25;73.67;101409.72;7365426;19;20023;-62
2023/06/22 00:54:48;;;;;;;6.68;2.60;;;;;;;21.24;74.04;101419.59;7365192;19;20029;-61
2023/06/22 00:57:17;;;;;;;5.80;2.53;;;;;;;21.20;73.80;101426.41;7364905;19;20063;-62
2023/06/22 00:59:45;;;;;;;8.35;2.42;;;;;;;21.18;74.27;101422.31;7366499;19;20367;-62
2023/06/22 01:02:12;;;;;;;5.35;2.45;;;;;;;21.16;74.16;101422.50;7362819;19;21055;-62
2023/06/22 01:04:40;;;;;;;7.75;2.38;;;;;;;21.13;74.40;101427.44;7365237;19;20010;-62
2023/06/22 01:07:25;;;;;;;4.13;2.30;;;;;;;21.10;74.15;101420.63;7363500;19;20045;-62
2023/06/22 01:09:59;;;;;;;5.75;2.47;;;;;;;21.08;74.57;101425.34;7366551;19;20014;-63
2023/06/22 01:12:32;;;;;;;6.65;2.83;;;;;;;21.08;74.97;101421.88;7365923;19;20021;-61
2023/06/22 01:15:15;;;;;;;6.95;2.58;;;;;;;21.08;74.89;101409.28;7362326;19;20561;-61
2023/06/22 01:17:44;;;;;;;5.53;2.60;;;;;;;21.05;74.48;101425.78;7363081;19;20018;-62
2023/06/22 01:20:14;;;;;;;7.20;3.10;;;;;;;21.02;74.88;101423.53;7363567;19;20109;-60
2023/06/22 01:23:09;;;;;;;8.27;3.15;;;;;;;20.99;75.84;101415.91;7366441;19;20893;-61
2023/06/22 01:25:47;;;;;;;6.72;2.33;;;;;;;20.99;75.85;101421.25;7363920;19;20031;-62
2023/06/22 01:28:27;;;;;;;5.82;2.75;;;;;;;20.97;75.54;101417.16;7364548;19;20494;-62
2023/06/22 01:31:03;;;;;;;6.70;2.60;;;;;;;20.98;75.95;101418.78;7361095;19;20018;-62
2023/06/22 01:33:35;;;;;;;3.95;2.17;;;;;;;20.96;75.65;101419.00;7362288;19;20045;-62
2023/06/22 01:36:04;;;;;;;4.95;2.55;;;;;;;20.96;76.12;101421.66;7363710;19;20015;-62
2023/06/22 01:38:33;;;;;;;6.13;3.10;;;;;;;20.98;76.07;101416.91;7364482;19;20030;-62
2023/06/22 01:41:02;;;;;;;4.15;2.33;;;;;;;20.97;76.15;101401.09;7367919;19;20018;-61
2023/06/22 01:43:30;;;;;;;5.60;2.90;;;;;;;20.94;75.90;101418.38;7366836;19;20018;-61
2023/06/22 01:46:01;;;;;;;10.35;3.13;;;;;;;20.93;75.49;101419.38;7364755;19;20443;-60
2023/06/22 01:48:29;;;;;;;7.18;4.13;;;;;;;20.88;76.41;101414.66;7358266;19;20681;-64
2023/06/22 01:50:56;;;;;;;6.70;3.08;;;;;;;20.87;77.62;101409.53;7361650;19;20014;-62
2023/06/22 01:53:24;;;;;;;7.78;3.10;;;;;;;20.84;76.70;101416.09;7364669;19;20093;-61
2023/06/22 01:55:52;;;;;;;6.22;2.95;;;;;;;20.84;76.96;101413.44;7365597;19;20019;-61
2023/06/22 01:58:23;;;;;;;7.47;3.17;;;;;;;20.87;76.94;101417.56;7365697;19;20359;-61
2023/06/22 02:01:10;;;;;;;6.93;3.55;;;;;;;20.86;76.31;101416.72;7362508;19;20019;-61
2023/06/22 02:03:43;;;;;;;5.05;3.00;;;;;;;20.86;76.92;101408.69;7359805;19;20018;-61
2023/06/22 02:06:29;;;;;;;6.50;3.30;;;;;;;20.85;76.82;101407.06;7361022;19;20022;-62
2023/06/22 02:09:01;;;;;;;6.45;3.22;;;;;;;20.83;76.59;101410.94;7361778;19;20059;-61
2023/06/22 02:11:30;;;;;;;7.80;3.10;;;;;;;20.81;76.66;101416.53;7361637;19;20034;-61
2023/06/22 02:13:58;;;;;;;5.97;3.55;;;;;;;20.78;77.30;101408.88;7363695;19;20037;-60
2023/06/22 02:16:29;;;;;;;4.38;2.83;;;;;;;20.75;77.23;101409.31;7364186;19;20055;-61
2023/06/22 02:19:02;;;;;;;8.53;3.27;;;;;;;20.72;77.09;101409.75;7361332;19;20014;-62
2023/06/22 02:21:31;;;;;;;8.07;3.33;;;;;;;20.68;77.45;101408.47;7361709;19;20089;-61
2023/06/22 02:23:58;;;;;;;8.45;3.08;;;;;;;20.64;77.81;101401.06;7363997;19;20127;-61
2023/06/22 02:26:27;;;;;;;7.38;3.55;;;;;;;20.61;78.00;101405.00;7362639;19;20499;-61
2023/06/22 02:28:54;;;;;;;6.22;3.33;;;;;;;20.61;78.07;101402.31;7361660;19;20017;-61
2023/06/22 02:31:21;;;;;;;4.93;3.00;;;;;;;20.60;78.16;101399.84;7360864;19;20006;-62
2023/06/22 02:33:49;;;;;;;8.18;2.90;;;;;;;20.59;78.12;101403.53;7359397;19;20018;-62
2023/06/22 02:36:20;;;;;;;6.03;3.35;;;;;;;20.54;78.15;101403.31;7363017;19;20053;-62
2023/06/22 02:38:48;;;;;;;6.97;3.40;;;;;;;20.49;78.51;101409.28;7359196;19;20017;-61
2023/06/22 02:41:18;;;;;;;7.93;3.28;;;;;;;20.49;78.67;101411.97;7363509;19;20571;-62
2023/06/22 02:43:46;;;;;;;5.55;3.13;;;;;;;20.47;79.03;101397.94;7360844;19;20027;-61
2023/06/22 02:46:14;;;;;;;9.63;3.63;;;;;;;20.47;79.04;101393.44;7363731;19;20852;-61
2023/06/22 02:48:41;;;;;;;5.50;3.22;;;;;;;20.51;79.06;101403.75;7361517;19;21112;-61
2023/06/22 02:51:11;;;;;;;7.13;3.47;;;;;;;20.53;78.86;101412.38;7359503;19;20010;-61
2023/06/22 02:53:38;;;;;;;7.72;3.75;;;;;;;20.49;78.66;101411.97;7363402;19;20022;-61
2023/06/22 02:56:05;;;;;;;5.20;3.55;;;;;;;20.45;79.05;101416.91;7356920;19;20023;-62
2023/06/22 02:58:38;;;;;;;6.28;3.47;;;;;;;20.40;79.64;101414.00;7347814;19;20117;-61
2023/06/22 03:01:06;;;;;;;8.73;3.85;;;;;;;20.37;79.70;101424.25;7345510;19;20025;-62
2023/06/22 03:03:33;;;;;;;6.50;3.20;;;;;;;20.40;79.78;101415.84;7361380;19;20022;-61
2023/06/22 03:06:01;;;;;;;7.53;3.65;;;;;;;20.42;79.54;101411.09;7361897;19;20014;-61
2023/06/22 03:08:28;;;;;;;9.10;3.28;;;;;;;20.42;79.46;101414.59;7362157;19;20682;-62
2023/06/22 03:10:56;;;;;;;7.30;3.80;;;;;;;20.44;80.46;101414.41;7354516;19;20131;-62
2023/06/22 03:13:24;;;;;;;5.43;3.08;;;;;;;20.43;80.07;101412.75;7360391;19;20018;-62
2023/06/22 03:15:51;;;;;;;6.63;3.10;;;;;;;20.43;79.91;101410.09;7358201;19;20098;-61
2023/06/22 03:18:18;;;;;;;7.70;3.78;;;;;;;20.41;79.64;101402.28;7359197;19;20037;-61
2023/06/22 03:20:46;;;;;;;6.53;3.80;;;;;;;20.37;79.84;101411.72;7362730;19;20014;-61
2023/06/22 03:23:13;;;;;;;7.65;3.45;;;;;;;20.32;79.99;101410.69;7365177;19;20025;-61
2023/06/22 03:25:41;;;;;;;12.38;4.13;;;;;;;20.24;80.79;101414.34;7361622;19;20019;-62
2023/06/22 03:28:08;;;;;;;9.65;3.40;;;;;;;20.22;80.59;101412.88;7362794;19;20401;-60
2023/06/22 03:30:35;;;;;;;6.65;3.83;;;;;;;20.20;81.14;101401.59;7356568;19;20018;-62
2023/06/22 03:33:05;;;;;;;7.80;3.78;;;;;;;20.20;80.83;101398.91;7358420;19;20007;-61
2023/06/22 03:35:32;;;;;;;9.60;3.63;;;;;;;20.20;81.20;101394.41;7360532;19;20026;-61
2023/06/22 03:37:59;;;;;;;10.30;4.30;;;;;;;20.21;81.38;101396.06;7362717;19;20319;-61
2023/06/22 03:40:27;;;;;;;8.90;3.78;;;;;;;20.23;81.50;101391.31;7359917;19;20140;-60
2023/06/22 03:42:55;;;;;;;6.43;3.80;;;;;;;20.20;80.65;101388.22;7363154;19;20977;-61
2023/06/22 03:45:22;;;;;;;8.82;4.20;;;;;;;20.19;80.72;101386.56;7357703;19;20022;-61
2023/06/22 03:47:49;;;;;;;8.85;4.10;;;;;;;20.18;80.73;101385.75;7361157;19;20015;-61
2023/06/22 03:50:20;;;;;;;7.32;3.28;;;;;;;20.15;81.27;101386.16;7359510;19;20039;-61
2023/06/22 03:52:47;;;;;;;11.20;4.40;;;;;;;20.15;81.68;101382.66;7362906;19;20679;-62
2023/06/22 03:55:14;;;;;;;9.18;4.22;;;;;;;20.14;81.60;101373.81;7359208;19;20055;-60
2023/06/22 03:57:41;;;;;;;6.38;3.65;;;;;;;20.13;81.36;101376.69;7360440;19;20038;-61
2023/06/22 04:00:10;;;;;;;8.80;3.83;;;;;;;20.11;81.36;101366.22;7358218;19;21747;-61
2023/06/22 04:02:37;;;;;;;8.68;4.47;;;;;;;20.09;81.24;101373.59;7361468;19;20018;-62
2023/06/22 04:05:05;;;;;;;6.78;3.58;;;;;;;20.03;81.31;101371.72;7360900;19;20606;-61
2023/06/22 04:07:32;;;;;;;7.68;3.97;;;;;;;20.01;82.19;101373.78;7357440;19;20035;-61
2023/06/22 04:10:00;;;;;;;6.80;4.00;;;;;;;19.99;82.25;101378.50;7360571;19;20877;-61
2023/06/22 04:12:27;;;;;;;5.35;4.00;;;;;;;19.94;82.03;101384.44;7360624;19;20208;-61
2023/06/22 04:14:54;;;;;;;6.38;4.00;;;;;;;19.95;82.33;101387.94;7359095;19;20022;-62
2023/06/22 04:17:24;;;;;;;8.35;3.80;;;;;;;19.93;82.50;101396.16;7358203;19;20021;-61
2023/06/22 04:19:52;;;;;;;10.35;4.47;;;;;;;19.91;82.69;101398.19;7356552;19;20098;-61
2023/06/22 04:22:19;;;;;;;6.68;3.97;;;;;;;19.92;82.32;101394.50;7361456;19;20037;-62
2023/06/22 04:24:46;;;;;;;6.68;4.30;;;;;;;19.92;82.58;101399.84;7357757;19;20014;-61
2023/06/22 04:27:14;;;;;;;7.15;3.80;;;;;;;19.93;82.42;101395.31;7358960;19;20042;-61
2023/06/22 04:29:48;;;;;;;6.53;3.97;;;;;;;19.93;82.19;101400.66;7358308;19;20043;-61
2023/06/22 04:32:16;;;;;;;9.38;3.88;;;;;;;19.91;82.44;101395.50;7366989;19;20018;-61
2023/06/22 04:34:43;;;;;;;8.23;4.07;;;;;;;19.87;82.65;101399.63;7366395;19;20670;-61
2023/06/22 04:37:15;;;;;;;10.55;4.75;;;;;;;19.84;82.71;101397.34;7367076;19;20018;-62
2023/06/22 04:39:43;;;;;;;10.13;4.67;;;;;;;19.86;83.40;101397.16;7365834;19;20023;-62
2023/06/22 04:42:12;;;;;;;9.77;4.05;;;;;;;19.86;83.21;101403.31;7364411;19;20022;-61
2023/06/22 04:44:41;;;;;;;10.05;3.83;;;;;;;19.84;82.70;101394.69;7364344;19;20014;-61
2023/06/22 04:47:08;;;;;;;6.90;4.25;;;;;;;19.82;82.72;101394.03;7361795;19;20034;-61
2023/06/22 04:49:37;;;;;;;7.82;4.22;;;;;;;19.81;82.76;101392.41;7362821;19;20022;-62
2023/06/22 04:52:07;;;;;;;9.02;3.78;;;;;;;19.80;82.97;101390.78;7368523;19;20014;-62
2023/06/22 04:54:36;;;;;;;9.45;4.35;;;;;;;19.82;82.87;101395.91;7363847;19;20019;-61
2023/06/22 04:57:09;;;;;;;7.13;4.03;;;;;;;19.79;82.97;101389.13;7367302;19;20014;-62
2023/06/22 04:59:41;;;;;;;9.40;4.40;;;;;;;19.80;83.07;101390.78;7361108;19;20071;-63
2023/06/22 05:02:09;;;;;;;7.88;4.43;;;;;;;19.80;83.15;101396.13;7362995;19;20522;-61
2023/06/22 05:04:38;;;;;;;8.55;4.30;;;;;;;19.84;83.07;101389.34;7363452;19;20030;-61
2023/06/22 05:07:06;;;;;;;7.85;3.75;;;;;;;19.86;82.84;101389.94;7366868;19;20021;-62
2023/06/22 05:09:34;;;;;;;10.57;4.35;;;;;;;19.89;82.81;101394.09;7365796;19;20483;-62
2023/06/22 05:12:02;;;;;;;8.18;4.00;;;;;;;19.88;82.65;101385.25;7367773;19;20018;-61
2023/06/22 05:14:30;;;;;;;7.35;4.30;;;;;;;19.88;82.72;101400.44;7363411;19;20026;-61
2023/06/22 05:16:58;;;;;;;7.75;4.30;;;;;;;19.89;82.77;101407.44;7365758;19;21621;-62
2023/06/22 05:19:33;;;;;;;10.23;5.03;;;;;;;19.87;83.13;101409.47;7362617;19;20015;-62
2023/06/22 05:22:01;;;;;;;11.57;4.53;;;;;;;19.87;83.83;101412.16;7366918;19;20014;-67
2023/06/22 05:24:28;;;;;;;9.20;4.40;;;;;;;19.87;83.28;101410.31;7363358;19;20041;-62
2023/06/22 05:26:56;;;;;;;7.47;4.10;;;;;;;19.89;82.87;101408.28;7365892;19;20011;-61
2023/06/22 05:29:23;;;;;;;7.53;4.40;;;;;;;19.94;83.17;101399.66;7364104;19;21721;-61
2023/06/22 05:31:50;;;;;;;7.45;4.32;;;;;;;19.96;82.99;101406.44;7363843;19;20018;-61
2023/06/22 05:34:17;;;;;;;10.23;5.22;;;;;;;19.97;82.91;101420.63;7365070;19;20038;-62
2023/06/22 05:36:44;;;;;;;8.48;4.80;;;;;;;19.98;83.61;101411.56;7364745;19;20090;-62
2023/06/22 05:39:14;;;;;;;9.10;4.38;;;;;;;20.00;83.33;101402.34;7365322;19;20936;-62
2023/06/22 05:41:43;;;;;;;9.63;4.53;;;;;;;20.02;83.04;101413.66;7365089;19;20043;-61
2023/06/22 05:44:10;;;;;;;8.10;4.90;;;;;;;20.02;82.52;101416.31;7362141;19;20010;-61
2023/06/22 05:46:44;;;;;;;9.88;4.85;;;;;;;20.05;82.44;101420.47;7363013;19;20024;-62
2023/06/22 05:49:13;;;;;;;8.60;4.50;;;;;;;20.07;82.63;101423.72;7363259;19;20046;-62
2023/06/22 05:51:41;;;;;;;7.30;4.43;;;;;;;20.08;82.82;101420.88;7363171;19;20003;-60
2023/06/22 05:54:08;;;;;;;13.15;5.35;;;;;;;20.11;82.51;101418.84;7359118;19;20922;-61
2023/06/22 05:56:36;;;;;;;9.63;4.90;;;;;;;20.15;82.68;101420.91;7364096;19;20558;-62
2023/06/22 05:59:04;;;;;;;7.28;4.70;;;;;;;20.21;82.73;101424.63;7361357;19;20018;-65
2023/06/22 06:01:34;;;;;;;10.93;5.22;;;;;;;20.24;81.83;101425.03;7362085;19;20039;-62
2023/06/22 06:04:03;;;;;;;10.60;4.97;;;;;;;20.27;81.63;101423.78;7365650;19;20026;-63
2023/06/22 06:06:31;;;;;;;11.50;5.50;;;;;;;20.25;81.45;101421.34;7364149;19;20074;-62
2023/06/22 06:08:59;;;;;;;11.30;5.57;;;;;;;20.28;81.37;101428.13;7364878;19;20026;-61
2023/06/22 06:11:26;;;;;;;12.77;5.55;;;;;;;20.30;81.29;101423.41;7359182;19;20051;-61
2023/06/22 06:13:54;;;;;;;8.40;4.97;;;;;;;20.31;81.37;101425.09;7364091;19;20043;-63
2023/06/22 06:16:22;;;;;;;10.73;5.05;;;;;;;20.30;81.68;101428.75;7361503;19;20617;-61
2023/06/22 06:18:50;;;;;;;9.15;5.45;;;;;;;20.30;81.52;101423.41;7363574;19;20018;-62
2023/06/22 06:21:17;;;;;;;10.40;5.30;;;;;;;20.33;82.08;101420.34;7360603;19;20014;-63
2023/06/22 06:23:44;;;;;;;10.48;5.50;;;;;;;20.38;81.82;101409.88;7366061;19;20039;-62
2023/06/22 06:26:12;;;;;;;12.20;5.90;;;;;;;20.41;81.80;101414.84;7364783;19;20052;-62
2023/06/22 06:28:40;;;;;;;9.73;5.88;;;;;;;20.44;81.46;101412.56;7364655;19;20019;-62
2023/06/22 06:31:08;;;;;;;10.32;5.72;;;;;;;20.48;81.75;101404.97;7361348;19;20018;-62
2023/06/22 06:33:36;;;;;;;9.95;5.50;;;;;;;20.49;81.89;101404.75;7366776;19;20019;-62
2023/06/22 06:36:03;;;;;;;9.50;5.05;;;;;;;20.56;81.64;101415.47;7363186;19;20427;-65
2023/06/22 06:38:31;;;;;;;9.50;5.63;;;;;;;20.61;81.56;101415.69;7363515;19;20037;-61
2023/06/22 06:40:59;;;;;;;10.32;5.25;;;;;;;20.67;80.65;101416.72;7360456;19;20021;-63
2023/06/22 06:43:26;;;;;;;11.98;6.20;;;;;;;20.72;80.81;101408.91;7363003;19;20703;-63
2023/06/22 06:45:54;;;;;;;11.18;5.85;;;;;;;20.74;79.98;101405.00;7361691;19;20037;-62
2023/06/22 06:48:21;;;;;;;11.15;5.72;;;;;;;20.76;80.50;101394.91;7362741;19;20078;-62
2023/06/22 06:50:48;;;;;;;11.18;5.80;;;;;;;20.80;79.27;101406.03;7359921;19;20028;-62
2023/06/22 06:53:16;;;;;;;10.50;5.68;;;;;;;20.76;79.38;101400.25;7363402;19;20487;-62
2023/06/22 06:55:48;;;;;;;11.27;5.53;;;;;;;20.77;79.81;101393.91;7362065;19;20007;-63
2023/06/22 06:58:16;;;;;;;;;;;;;;;20.78;79.61;101398.19;7360119;19;20134;-63
2023/06/22 07:00:44;;;;;;;10.88;5.65;;;;;;;20.75;80.12;101395.94;7355146;19;21678;-61
2023/06/22 07:03:12;;;;;;;10.30;5.70;;;;;;;20.72;80.27;101391.00;7361676;19;20007;-62
2023/06/22 07:05:39;;;;;;;9.95;5.97;;;;;;;20.70;80.31;101403.75;7359818;19;20094;-61
2023/06/22 07:08:06;;;;;;;10.77;5.72;;;;;;;20.69;80.32;101391.41;7363111;19;20106;-62
2023/06/22 07:10:34;;;;;;;14.15;5.85;;;;;;;20.72;80.57;101396.38;7359646;19;20022;-63
2023/06/22 07:13:01;;;;;;;12.57;6.30;;;;;;;20.79;80.95;101405.19;7365008;19;21001;-61
2023/06/22 07:15:29;;;;;;;11.98;6.43;;;;;;;20.88;79.54;101400.44;7358529;19;20356;-62
2023/06/22 07:17:58;;;;;;;11.98;6.50;;;;;;;20.90;79.25;101404.59;7362770;19;20085;-62
2023/06/22 07:20:25;;;;;;;12.65;6.35;;;;;;;20.95;79.54;101406.63;7358993;19;20018;-62
2023/06/22 07:22:54;;;;;;;15.23;6.75;;;;;;;21.01;79.91;101399.63;7361685;19;20502;-61
2023/06/22 07:25:21;;;;;;;13.68;6.50;;;;;;;21.14;78.24;101402.31;7359516;19;20709;-62
2023/06/22 07:28:06;;;;;;;12.07;6.47;;;;;;;21.14;78.11;101391.63;7360486;19;20505;-61
2023/06/22 07:30:34;;;;;;;12.52;6.32;;;;;;;21.19;78.12;101394.50;7356807;19;20015;-61
2023/06/22 07:33:03;;;;;;;13.63;6.10;;;;;;;21.29;78.06;101392.19;7359075;19;21827;-62
2023/06/22 07:35:33;;;;;;;11.85;6.53;;;;;;;21.44;77.29;101389.28;7360781;19;20017;-61
2023/06/22 07:38:00;;;;;;;12.55;6.55;;;;;;;21.66;76.94;101393.34;7364932;19;20022;-62
2023/06/22 07:40:31;;;;;;;11.65;5.82;;;;;;;21.94;75.08;101387.72;7359193;19;20315;-61
2023/06/22 07:42:59;;;;;;;11.60;5.50;;;;;;;22.57;72.30;101385.84;7363120;19;20109;-63
2023/06/22 07:45:27;;;;;;;9.43;4.55;;;;;;;23.34;69.79;101390.78;7354914;19;20691;-63
2023/06/22 07:47:54;;;;;;;9.13;4.20;;;;;;;24.26;66.14;101397.75;7364859;19;20094;-62
2023/06/22 07:50:21;;;;;;;9.00;4.55;;;;;;;24.55;64.27;101400.63;7359251;19;20022;-62
2023/06/22 07:52:49;;;;;;;9.50;4.82;;;;;;;24.48;63.87;101398.03;7361658;19;20015;-62
2023/06/22 07:55:20;;;;;;;10.98;4.90;;;;;;;24.32;66.31;101403.25;7360372;19;20061;-63
2023/06/22 07:57:49;;;;;;;8.00;4.53;;;;;;;24.11;65.72;101400.00;7361439;19;20011;-62
2023/06/22 08:00:17;;;;;;;9.30;4.18;;;;;;;24.03;66.23;101391.41;7356584;19;20023;-61
2023/06/22 08:02:47;;;;;;;12.95;4.10;;;;;;;23.86;67.22;101388.53;7359597;19;20023;-61
2023/06/22 08:05:15;;;;;;;11.95;4.85;;;;;;;23.72;68.21;101389.75;7359499;19;20018;-62
2023/06/22 08:07:48;;;;;;;8.85;4.13;;;;;;;23.57;67.93;101386.63;7367831;19;20018;-63
2023/06/22 08:10:16;;;;;;;9.32;4.32;;;;;;;23.47;68.59;101384.44;7363087;19;21326;-60
2023/06/22 08:12:44;;;;;;;11.27;4.70;;;;;;;23.39;69.47;101379.34;7367184;19;20010;-63
2023/06/22 08:15:14;;;;;;;11.07;4.20;;;;;;;23.31;70.02;101380.47;7366590;19;20022;-61
2023/06/22 08:17:41;;;;;;;13.80;3.88;;;;;;;23.34;69.89;101377.34;7371507;19;20076;-62
2023/06/22 08:20:11;;;;;;;9.15;4.13;;;;;;;23.59;70.70;101377.28;7370701;19;20522;-61
2023/06/22 08:22:41;;;;;;;6.75;3.75;;;;;;;23.93;67.77;101377.69;7369785;19;20371;-61
2023/06/22 08:25:09;;;;;;;8.85;4.03;;;;;;;24.03;65.36;101386.84;7370553;19;20109;-62
2023/06/22 08:27:37;;;;;;;6.55;3.47;;;;;;;23.91;66.65;101380.63;7370863;19;20010;-61
2023/06/22 08:30:06;;;;;;;8.50;3.50;;;;;;;23.91;67.22;101382.47;7368092;19;20017;-61
2023/06/22 08:32:33;;;;;;;7.05;3.13;;;;;;;24.26;66.47;101386.16;7364562;19;20020;-61
2023/06/22 08:35:01;;;;;;;5.95;3.38;;;;;;;24.88;64.58;101383.97;7365333;19;20014;-63
2023/06/22 08:37:35;;;;;;;7.32;3.55;;;;;;;25.44;62.28;101377.97;7368835;19;20011;-62
2023/06/22 08:40:05;;;;;;;6.25;3.88;;;;;;;25.55;61.40;101379.81;7366352;19;22691;-61
2023/06/22 08:42:33;;;;;;;8.65;4.15;;;;;;;25.30;61.66;101374.69;7366606;19;21044;-61
2023/06/22 08:45:00;;;;;;;7.28;3.03;;;;;;;25.01;61.95;101373.78;7367061;19;20022;-62
2023/06/22 08:47:28;;;;;;;7.13;3.70;;;;;;;24.87;64.42;101374.22;7365127;19;20014;-62
2023/06/22 08:49:56;;;;;;;12.02;3.97;;;;;;;24.76;64.10;101370.47;7367103;19;20020;-61
2023/06/22 08:52:26;;;;;;;6.10;2.88;;;;;;;24.68;64.24;101370.81;7366080;19;20417;-61
2023/06/22 08:54:53;;;;;;;6.85;2.90;;;;;;;24.71;63.78;101373.03;7366237;19;20042;-62
2023/06/22 08:57:21;;;;;;;6.85;2.85;;;;;;;24.73;63.36;101370.13;7369829;19;20025;-60
2023/06/22 08:59:48;;;;;;;6.85;3.75;;;;;;;24.76;61.98;101375.84;7365197;19;20181;-61
2023/06/22 09:02:17;;;;;;;4.05;3.08;;;;;;;24.63;63.01;101376.91;7368002;19;20085;-62
2023/06/22 09:04:46;;;;;;;6.47;2.42;;;;;;;24.42;62.92;101376.63;7363783;19;20056;-61
2023/06/22 09:07:13;;;;;;;5.57;2.90;;;;;;;24.33;62.11;101375.31;7368691;19;20486;-62
2023/06/22 09:09:41;;;;;;;6.30;2.30;;;;;;;24.36;62.12;101382.91;7366157;19;20025;-63
2023/06/22 09:12:09;;;;;;;5.47;2.72;;;;;;;24.41;63.46;101383.03;7331795;19;20058;-61
2023/06/22 09:14:36;;;;;;;5.78;2.30;;;;;;;24.37;63.35;101392.63;7355978;19;20071;-63
2023/06/22 09:17:05;;;;;;;7.90;3.45;;;;;;;24.27;63.65;101393.19;7358362;19;20025;-62
2023/06/22 09:19:33;;;;;;;4.70;2.97;;;;;;;24.20;64.10;101382.50;7362784;19;21875;-62
2023/06/22 09:22:03;;;;;;;9.27;3.15;;;;;;;24.13;63.51;101384.44;7363901;19;20017;-61
2023/06/22 09:24:31;;;;;;;6.25;2.38;;;;;;;24.14;62.30;101377.19;7361413;19;20093;-62
2023/06/22 09:27:01;;;;;;;6.32;2.20;;;;;;;24.09;62.99;101382.44;7362460;19;20007;-61
2023/06/22 09:29:33;;;;;;;5.55;2.60;;;;;;;24.05;63.13;101376.69;7358652;19;20030;-61
2023/06/22 09:32:01;;;;;;;8.27;3.25;;;;;;;23.99;62.98;101382.16;7365917;19;20021;-62
2023/06/22 09:34:31;;;;;;;6.28;3.67;;;;;;;23.98;63.14;101381.34;7363860;19;20033;-62
2023/06/22 09:37:00;;;;;;;6.15;2.17;;;;;;;24.01;63.55;101377.38;7362646;19;20050;-62
2023/06/22 09:39:27;;;;;;;3.72;2.08;;;;;;;24.03;61.23;101378.78;7364813;19;20585;-62
2023/06/22 09:41:55;;;;;;;7.50;2.63;;;;;;;24.05;60.60;101386.63;7362454;19;20015;-61
2023/06/22 09:44:22;;;;;;;4.60;2.20;;;;;;;23.98;60.65;101377.81;7357475;19;20058;-60
2023/06/22 09:46:49;;;;;;;7.72;2.13;;;;;;;23.99;61.00;101384.84;7361733;19;20006;-62
2023/06/22 09:49:17;;;;;;;5.45;1.73;;;;;;;24.03;60.92;101384.16;7360574;19;20019;-61
2023/06/22 09:51:53;;;;;;;3.00;1.85;;;;;;;24.18;60.26;101383.78;7364193;19;20014;-63
2023/06/22 09:54:20;;;;;;;4.43;1.98;;;;;;;24.39;59.05;101383.25;7361996;19;20045;-61
2023/06/22 09:56:48;;;;;;;5.72;2.28;;;;;;;24.55;59.75;101381.78;7363328;19;20054;-62
2023/06/22 09:59:15;;;;;;;4.88;2.10;;;;;;;24.69;59.28;101378.63;7363827;19;20023;-62
2023/06/22 10:01:45;;;;;;;5.05;2.08;;;;;;;24.84;58.47;101377.38;7362539;19;20034;-61
2023/06/22 10:04:12;;;;;;;4.32;2.03;;;;;;;24.97;58.70;101380.69;7365441;19;20599;-61
2023/06/22 10:06:40;;;;;;;9.00;3.40;;;;;;;25.12;59.50;101380.22;7364408;19;20010;-62
2023/06/22 10:09:08;;;;;;;5.35;2.60;;;;;;;25.16;58.16;101375.16;7363085;19;20017;-62
2023/06/22 10:11:36;;;;;;;6.45;2.92;;;;;;;25.17;58.22;101382.19;7367489;19;20050;-61
2023/06/22 10:14:04;;;;;;;6.10;2.20;;;;;;;25.22;56.30;101376.94;7364235;19;20017;-61
2023/06/22 10:16:32;;;;;;;5.32;2.00;;;;;;;25.37;56.05;101374.56;7360608;19;20021;-62
2023/06/22 10:18:59;;;;;;;7.07;2.10;;;;;;;25.44;56.02;101370.69;7365790;19;20030;-63
2023/06/22 10:21:28;;;;;;;5.40;2.75;;;;;;;25.46;55.61;101373.13;7360724;19;20023;-62
2023/06/22 10:23:55;;;;;;;4.97;2.15;;;;;;;25.34;56.43;101367.78;7363609;19;20010;-62
2023/06/22 10:26:23;;;;;;;2.83;1.70;;;;;;;25.31;54.33;101368.25;7364648;19;21752;-61
2023/06/22 10:28:50;;;;;;;3.28;1.33;;;;;;;25.33;54.55;101374.22;7361270;19;20045;-61
2023/06/22 10:31:37;;;;;;;2.88;1.25;;;;;;;25.35;53.69;101365.88;7362651;19;20360;-61
2023/06/22 10:34:05;;;;;;;3.70;1.70;;;;;;;25.38;52.37;101366.25;7362967;19;20021;-62
2023/06/22 10:36:32;;;;;;;3.22;1.40;;;;;;;25.33;51.76;101362.63;7365606;19;20090;-62
2023/06/22 10:39:01;;;;;;;3.92;1.40;;;;;;;25.25;52.22;101366.50;7364097;19;20291;-61
2023/06/22 10:41:30;;;;;;;6.05;1.60;;;;;;;25.19;53.64;101366.63;7363972;19;20526;-62
2023/06/22 10:43:57;;;;;;;5.22;1.63;;;;;;;25.17;53.40;101360.66;7362491;19;20109;-62
2023/06/22 10:46:27;;;;;;;3.33;1.73;;;;;;;25.25;53.38;101362.97;7362252;19;20026;-63
2023/06/22 10:48:56;;;;;;;2.83;1.80;;;;;;;25.38;53.69;101360.84;7326096;19;20519;-61
2023/06/22 10:51:25;;;;;;;6.30;2.00;;;;;;;25.48;53.37;101361.06;7353298;19;21720;-62
2023/06/22 10:53:53;;;;;;;4.80;1.50;;;;;;;25.63;52.74;101363.28;7357353;19;20042;-63
2023/06/22 10:56:21;;;;;;;4.50;1.73;;;;;;;25.74;52.19;101367.84;7358153;19;20014;-63
2023/06/22 10:58:49;;;;;;;5.63;1.75;;;;;;;25.76;52.40;101359.47;7355805;19;20115;-62
2023/06/22 11:01:17;;;;;;;5.25;1.65;;;;;;;25.70;53.33;101365.84;7357906;19;20495;-61
2023/06/22 11:04:01;;;;;;;3.13;1.67;;;;;;;25.59;51.84;101367.53;7357188;19;20014;-62
2023/06/22 11:06:30;;;;;;;3.78;1.58;;;;;;;25.73;51.24;101365.38;7358921;19;20045;-61
2023/06/22 11:08:58;;;;;;;4.60;1.63;;;;;;;25.75;51.18;101369.44;7358785;19;20529;-61
2023/06/22 11:11:50;;;;;;;3.83;0.90;;;;;;;25.85;50.73;101368.84;7361445;19;20010;-62
2023/06/22 11:14:18;;;;;;;4.55;1.38;;;;;;;25.86;50.50;101365.06;7355911;19;20047;-63
2023/06/22 11:16:49;;;;;;;2.78;1.10;;;;;;;25.87;50.27;101367.53;7360737;19;20090;-63
2023/06/22 11:19:18;;;;;;;2.40;1.20;;;;;;;25.89;50.66;101365.44;7351187;19;20868;-62
2023/06/22 11:21:46;;;;;;;2.40;1.05;;;;;;;25.87;50.70;101370.22;7360343;19;20047;-62
2023/06/22 11:24:15;;;;;;;4.18;1.35;;;;;;;25.84;48.38;101365.34;7359546;19;20016;-62
2023/06/22 11:26:43;;;;;;;2.08;1.00;;;;;;;25.84;47.53;101370.72;7359171;19;20051;-64
2023/06/22 11:29:11;;;;;;;2.95;1.02;;;;;;;25.84;47.85;101369.91;7357630;19;20061;-60
2023/06/22 11:31:53;;;;;;;2.13;1.30;;;;;;;25.86;48.53;101365.88;7363618;19;20047;-61